sensor_id;sensor_type;location;lat;lon;timestamp;pressure;altitude;pressure_sealevel;temperature;humidity
17593;BME280;8915;51.760;14.300;2023-01-28T00:00:14;101801.47;;;-2.53;100.00
17593;BME280;8915;51.760;14.300;2023-01-28T00:02:42;101801.31;;;-2.56;100.00
17593;BME280;8915;51.760;14.300;2023-01-28T00:05:09;101791.75;;;-2.60;100.00
17593;BME280;8915;51.760;14.300;2023-01-28T00:07:36;101794.97;;;-2.64;100.00
17593;BME280;8915;51.760;14.300;2023-01-28T00:10:03;101791.47;;;-2.67;100.00
17593;BME280;8915;51.760;14.300;2023-01-28T00:12:29;101790.63;;;-2.67;100.00
17593;BME280;8915;51.760;14.300;2023-01-28T00:14:56;101792.34;;;-2.66;100.00
17593;BME280;8915;51.760;14.300;2023-01-28T00:17:25;101796.00;;;-2.61;100.00
17593;BME280;8915;51.760;14.300;2023-01-28T00:19:53;101793.50;;;-2.59;100.00
17593;BME280;8915;51.760;14.300;2023-01-28T00:22:20;101790.25;;;-2.57;100.00
17593;BME280;8915;51.760;14.300;2023-01-28T00:24:47;101798.09;;;-2.52;100.00
17593;BME280;8915;51.760;14.300;2023-01-28T00:27:13;101805.03;;;-2.50;100.00
17593;BME280;8915;51.760;14.300;2023-01-28T00:29:40;101801.75;;;-2.47;100.00
17593;BME280;8915;51.760;14.300;2023-01-28T00:32:06;101798.50;;;-2.43;100.00
17593;BME280;8915;51.760;14.300;2023-01-28T00:34:33;101804.59;;;-2.41;100.00
17593;BME280;8915;51.760;14.300;2023-01-28T00:37:00;101799.47;;;-2.41;100.00
17593;BME280;8915;51.760;14.300;2023-01-28T00:39:29;101807.06;;;-2.42;100.00
17593;BME280;8915;51.760;14.300;2023-01-28T00:41:56;101807.00;;;-2.44;100.00
17593;BME280;8915;51.760;14.300;2023-01-28T00:44:23;101810.34;;;-2.45;100.00
17593;BME280;8915;51.760;14.300;2023-01-28T00:46:49;101808.53;;;-2.48;100.00
17593;BME280;8915;51.760;14.300;2023-01-28T00:49:16;101814.50;;;-2.47;100.00
17593;BME280;8915;51.760;14.300;2023-01-28T00:51:42;101809.31;;;-2.49;100.00
17593;BME280;8915;51.760;14.300;2023-01-28T00:54:11;101815.19;;;-2.51;100.00
17593;BME280;8915;51.760;14.300;2023-01-28T00:56:38;101814.03;;;-2.58;100.00
17593;BME280;8915;51.760;14.300;2023-01-28T00:59:04;101820.81;;;-2.58;100.00
17593;BME280;8915;51.760;14.300;2023-01-28T01:01:31;101823.38;;;-2.58;100.00
17593;BME280;8915;51.760;14.300;2023-01-28T01:03:57;101820.66;;;-2.61;100.00
17593;BME280;8915;51.760;14.300;2023-01-28T01:06:30;101827.22;;;-2.67;100.00
17593;BME280;8915;51.760;14.300;2023-01-28T01:08:58;101822.84;;;-2.69;100.00
17593;BME280;8915;51.760;14.300;2023-01-28T01:11:26;101822.56;;;-2.75;100.00
17593;BME280;8915;51.760;14.300;2023-01-28T01:13:54;101820.69;;;-2.79;100.00
17593;BME280;8915;51.760;14.300;2023-01-28T01:16:24;101823.00;;;-2.84;100.00
17593;BME280;8915;51.760;14.300;2023-01-28T01:18:52;101826.16;;;-2.90;100.00
17593;BME280;8915;51.760;14.300;2023-01-28T01:21:23;101838.75;;;-2.93;100.00
17593;BME280;8915;51.760;14.300;2023-01-28T01:23:50;101830.06;;;-2.96;100.00
17593;BME280;8915;51.760;14.300;2023-01-28T01:26:16;101828.19;;;-3.00;100.00
17593;BME280;8915;51.760;14.300;2023-01-28T01:28:44;101827.16;;;-3.04;100.00
17593;BME280;8915;51.760;14.300;2023-01-28T01:31:13;101826.06;;;-3.09;100.00
17593;BME280;8915;51.760;14.300;2023-01-28T01:33:41;101823.44;;;-3.11;100.00
17593;BME280;8915;51.760;14.300;2023-01-28T01:36:10;101828.44;;;-3.12;100.00
17593;BME280;8915;51.760;14.300;2023-01-28T01:38:38;101829.97;;;-3.16;100.00
17593;BME280;8915;51.760;14.300;2023-01-28T01:41:08;101835.78;;;-3.18;100.00
17593;BME280;8915;51.760;14.300;2023-01-28T01:43:48;101835.75;;;-3.20;100.00
17593;BME280;8915;51.760;14.300;2023-01-28T01:46:19;101836.38;;;-3.24;100.00
17593;BME280;8915;51.760;14.300;2023-01-28T01:48:47;101830.16;;;-3.29;100.00
17593;BME280;8915;51.760;14.300;2023-01-28T01:51:16;101827.47;;;-3.32;100.00
17593;BME280;8915;51.760;14.300;2023-01-28T01:53:47;101829.88;;;-3.35;100.00
17593;BME280;8915;51.760;14.300;2023-01-28T01:56:17;101822.84;;;-3.39;100.00
17593;BME280;8915;51.760;14.300;2023-01-28T01:58:49;101828.69;;;-3.42;100.00
17593;BME280;8915;51.760;14.300;2023-01-28T02:01:16;101830.22;;;-3.46;100.00
17593;BME280;8915;51.760;14.300;2023-01-28T02:03:51;101829.97;;;-3.50;100.00
17593;BME280;8915;51.760;14.300;2023-01-28T02:06:19;101828.16;;;-3.53;100.00
17593;BME280;8915;51.760;14.300;2023-01-28T02:08:45;101836.50;;;-3.55;100.00
17593;BME280;8915;51.760;14.300;2023-01-28T02:11:13;101833.97;;;-3.55;100.00
17593;BME280;8915;51.760;14.300;2023-01-28T02:13:43;101834.69;;;-3.58;100.00
17593;BME280;8915;51.760;14.300;2023-01-28T02:16:13;101833.00;;;-3.57;100.00
17593;BME280;8915;51.760;14.300;2023-01-28T02:18:40;101836.47;;;-3.57;100.00
17593;BME280;8915;51.760;14.300;2023-01-28T02:21:25;101840.75;;;-3.56;100.00
17593;BME280;8915;51.760;14.300;2023-01-28T02:24:12;101845.13;;;-3.53;100.00
17593;BME280;8915;51.760;14.300;2023-01-28T02:26:55;101846.88;;;-3.52;100.00
17593;BME280;8915;51.760;14.300;2023-01-28T02:29:32;101846.25;;;-3.48;100.00
17593;BME280;8915;51.760;14.300;2023-01-28T02:32:04;101838.59;;;-3.48;100.00
17593;BME280;8915;51.760;14.300;2023-01-28T02:34:39;101842.72;;;-3.50;100.00
17593;BME280;8915;51.760;14.300;2023-01-28T02:37:11;101841.84;;;-3.51;100.00
17593;BME280;8915;51.760;14.300;2023-01-28T02:39:43;101852.91;;;-3.50;100.00
17593;BME280;8915;51.760;14.300;2023-01-28T02:42:14;101851.97;;;-3.52;100.00
17593;BME280;8915;51.760;14.300;2023-01-28T02:44:44;101850.22;;;-3.53;100.00
17593;BME280;8915;51.760;14.300;2023-01-28T02:47:11;101857.81;;;-3.55;100.00
17593;BME280;8915;51.760;14.300;2023-01-28T02:50:02;101852.53;;;-3.58;100.00
17593;BME280;8915;51.760;14.300;2023-01-28T02:52:43;101852.28;;;-3.63;100.00
17593;BME280;8915;51.760;14.300;2023-01-28T02:55:35;101852.28;;;-3.63;100.00
17593;BME280;8915;51.760;14.300;2023-01-28T02:58:09;101847.84;;;-3.67;100.00
17593;BME280;8915;51.760;14.300;2023-01-28T03:00:48;101850.16;;;-3.71;100.00
17593;BME280;8915;51.760;14.300;2023-01-28T03:03:19;101858.53;;;-3.74;100.00
17593;BME280;8915;51.760;14.300;2023-01-28T03:05:50;101859.38;;;-3.73;100.00
17593;BME280;8915;51.760;14.300;2023-01-28T03:08:34;101850.78;;;-3.75;100.00
17593;BME280;8915;51.760;14.300;2023-01-28T03:11:33;101848.91;;;-3.79;100.00
17593;BME280;8915;51.760;14.300;2023-01-28T03:14:19;101852.00;;;-3.85;100.00
17593;BME280;8915;51.760;14.300;2023-01-28T03:17:09;101854.38;;;-3.88;100.00
17593;BME280;8915;51.760;14.300;2023-01-28T03:19:55;101856.59;;;-3.94;100.00
17593;BME280;8915;51.760;14.300;2023-01-28T03:22:41;101855.47;;;-4.00;100.00
17593;BME280;8915;51.760;14.300;2023-01-28T03:25:28;101850.94;;;-4.05;100.00
17593;BME280;8915;51.760;14.300;2023-01-28T03:28:16;101859.22;;;-4.09;100.00
17593;BME280;8915;51.760;14.300;2023-01-28T03:31:05;101857.16;;;-4.16;100.00
17593;BME280;8915;51.760;14.300;2023-01-28T03:33:56;101849.06;;;-4.24;100.00
17593;BME280;8915;51.760;14.300;2023-01-28T03:36:42;101857.28;;;-4.30;100.00
17593;BME280;8915;51.760;14.300;2023-01-28T03:39:33;101862.19;;;-4.33;100.00
17593;BME280;8915;51.760;14.300;2023-01-28T03:42:04;101863.59;;;-4.38;100.00
17593;BME280;8915;51.760;14.300;2023-01-28T03:44:31;101860.03;;;-4.42;100.00
17593;BME280;8915;51.760;14.300;2023-01-28T03:47:16;101870.16;;;-4.43;100.00
17593;BME280;8915;51.760;14.300;2023-01-28T03:49:46;101869.06;;;-4.47;100.00
17593;BME280;8915;51.760;14.300;2023-01-28T03:52:16;101866.38;;;-4.50;100.00
17593;BME280;8915;51.760;14.300;2023-01-28T03:54:43;101879.97;;;-4.49;100.00
17593;BME280;8915;51.760;14.300;2023-01-28T03:57:13;101877.34;;;-4.51;100.00
17593;BME280;8915;51.760;14.300;2023-01-28T03:59:39;101892.63;;;-4.51;100.00
17593;BME280;8915;51.760;14.300;2023-01-28T04:02:07;101889.22;;;-4.51;100.00
17593;BME280;8915;51.760;14.300;2023-01-28T04:04:35;101887.63;;;-4.49;100.00
17593;BME280;8915;51.760;14.300;2023-01-28T04:07:04;101891.84;;;-4.50;100.00
17593;BME280;8915;51.760;14.300;2023-01-28T04:09:51;101890.34;;;-4.46;100.00
17593;BME280;8915;51.760;14.300;2023-01-28T04:12:39;101891.31;;;-4.44;100.00
17593;BME280;8915;51.760;14.300;2023-01-28T04:15:07;101891.56;;;-4.40;100.00
17593;BME280;8915;51.760;14.300;2023-01-28T04:17:45;101887.44;;;-4.38;100.00
17593;BME280;8915;51.760;14.300;2023-01-28T04:20:22;101894.25;;;-4.37;100.00
17593;BME280;8915;51.760;14.300;2023-01-28T04:22:50;101895.16;;;-4.36;100.00
17593;BME280;8915;51.760;14.300;2023-01-28T04:25:18;101893.47;;;-4.35;100.00
17593;BME280;8915;51.760;14.300;2023-01-28T04:27:45;101896.97;;;-4.33;100.00
17593;BME280;8915;51.760;14.300;2023-01-28T04:30:19;101897.06;;;-4.32;100.00
17593;BME280;8915;51.760;14.300;2023-01-28T04:32:55;101888.69;;;-4.29;100.00
17593;BME280;8915;51.760;14.300;2023-01-28T04:35:30;101892.22;;;-4.27;100.00
17593;BME280;8915;51.760;14.300;2023-01-28T04:38:07;101899.06;;;-4.26;100.00
17593;BME280;8915;51.760;14.300;2023-01-28T04:40:53;101899.94;;;-4.26;100.00
17593;BME280;8915;51.760;14.300;2023-01-28T04:43:24;101901.69;;;-4.25;100.00
17593;BME280;8915;51.760;14.300;2023-01-28T04:46:17;101895.19;;;-4.20;100.00
17593;BME280;8915;51.760;14.300;2023-01-28T04:48:54;101899.81;;;-4.12;100.00
17593;BME280;8915;51.760;14.300;2023-01-28T04:51:32;101896.53;;;-4.10;100.00
17593;BME280;8915;51.760;14.300;2023-01-28T04:54:32;101900.00;;;-4.09;100.00
17593;BME280;8915;51.760;14.300;2023-01-28T04:57:01;101897.34;;;-4.11;100.00
17593;BME280;8915;51.760;14.300;2023-01-28T04:59:28;101890.66;;;-4.09;100.00
17593;BME280;8915;51.760;14.300;2023-01-28T05:01:55;101896.03;;;-4.04;100.00
17593;BME280;8915;51.760;14.300;2023-01-28T05:04:22;101894.34;;;-4.04;100.00
17593;BME280;8915;51.760;14.300;2023-01-28T05:06:48;101900.47;;;-4.00;100.00
17593;BME280;8915;51.760;14.300;2023-01-28T05:09:18;101897.16;;;-3.99;100.00
17593;BME280;8915;51.760;14.300;2023-01-28T05:11:46;101901.50;;;-3.96;100.00
17593;BME280;8915;51.760;14.300;2023-01-28T05:14:13;101911.06;;;-3.92;100.00
17593;BME280;8915;51.760;14.300;2023-01-28T05:16:58;101911.41;;;-3.86;100.00
17593;BME280;8915;51.760;14.300;2023-01-28T05:19:24;101909.56;;;-3.89;100.00
17593;BME280;8915;51.760;14.300;2023-01-28T05:21:51;101910.63;;;-3.85;100.00
17593;BME280;8915;51.760;14.300;2023-01-28T05:24:26;101915.78;;;-3.84;100.00
17593;BME280;8915;51.760;14.300;2023-01-28T05:26:53;101917.63;;;-3.81;100.00
17593;BME280;8915;51.760;14.300;2023-01-28T05:29:20;101926.22;;;-3.79;100.00
17593;BME280;8915;51.760;14.300;2023-01-28T05:31:47;101925.50;;;-3.76;100.00
17593;BME280;8915;51.760;14.300;2023-01-28T05:34:14;101924.81;;;-3.74;100.00
17593;BME280;8915;51.760;14.300;2023-01-28T05:36:41;101926.69;;;-3.70;100.00
17593;BME280;8915;51.760;14.300;2023-01-28T05:39:24;101931.09;;;-3.67;100.00
17593;BME280;8915;51.760;14.300;2023-01-28T05:41:50;101926.88;;;-3.67;100.00
17593;BME280;8915;51.760;14.300;2023-01-28T05:44:18;101931.25;;;-3.64;100.00
17593;BME280;8915;51.760;14.300;2023-01-28T05:46:57;101935.56;;;-3.63;100.00
17593;BME280;8915;51.760;14.300;2023-01-28T05:49:43;101933.09;;;-3.62;100.00
17593;BME280;8915;51.760;14.300;2023-01-28T05:52:29;101946.78;;;-3.59;100.00
17593;BME280;8915;51.760;14.300;2023-01-28T05:54:56;101947.81;;;-3.56;100.00
17593;BME280;8915;51.760;14.300;2023-01-28T05:57:24;101953.88;;;-3.54;100.00
17593;BME280;8915;51.760;14.300;2023-01-28T05:59:51;101953.97;;;-3.52;100.00
17593;BME280;8915;51.760;14.300;2023-01-28T06:02:18;101953.97;;;-3.52;100.00
17593;BME280;8915;51.760;14.300;2023-01-28T06:04:45;101961.88;;;-3.48;100.00
17593;BME280;8915;51.760;14.300;2023-01-28T06:07:11;101962.03;;;-3.45;100.00
17593;BME280;8915;51.760;14.300;2023-01-28T06:09:41;101967.13;;;-3.45;100.00
17593;BME280;8915;51.760;14.300;2023-01-28T06:12:08;101973.28;;;-3.41;100.00
17593;BME280;8915;51.760;14.300;2023-01-28T06:14:53;101974.31;;;-3.37;100.00
17593;BME280;8915;51.760;14.300;2023-01-28T06:17:38;101986.16;;;-3.38;100.00
17593;BME280;8915;51.760;14.300;2023-01-28T06:20:08;101989.84;;;-3.33;100.00
17593;BME280;8915;51.760;14.300;2023-01-28T06:22:39;101990.00;;;-3.30;100.00
17593;BME280;8915;51.760;14.300;2023-01-28T06:25:06;101990.94;;;-3.28;100.00
17593;BME280;8915;51.760;14.300;2023-01-28T06:27:33;101997.00;;;-3.26;100.00
17593;BME280;8915;51.760;14.300;2023-01-28T06:30:01;101999.56;;;-3.26;100.00
17593;BME280;8915;51.760;14.300;2023-01-28T06:32:29;101993.66;;;-3.25;100.00
17593;BME280;8915;51.760;14.300;2023-01-28T06:34:56;102002.09;;;-3.26;100.00
17593;BME280;8915;51.760;14.300;2023-01-28T06:37:23;101997.81;;;-3.27;100.00
17593;BME280;8915;51.760;14.300;2023-01-28T06:39:49;102001.31;;;-3.25;100.00
17593;BME280;8915;51.760;14.300;2023-01-28T06:42:15;102005.69;;;-3.22;100.00
17593;BME280;8915;51.760;14.300;2023-01-28T06:44:42;102006.50;;;-3.23;100.00
17593;BME280;8915;51.760;14.300;2023-01-28T06:47:09;101999.63;;;-3.24;100.00
17593;BME280;8915;51.760;14.300;2023-01-28T06:49:36;101989.59;;;-3.21;100.00
17593;BME280;8915;51.760;14.300;2023-01-28T06:52:03;101995.50;;;-3.22;100.00
17593;BME280;8915;51.760;14.300;2023-01-28T06:54:29;102002.38;;;-3.21;100.00
17593;BME280;8915;51.760;14.300;2023-01-28T06:56:57;102002.38;;;-3.21;100.00
17593;BME280;8915;51.760;14.300;2023-01-28T06:59:23;102006.81;;;-3.17;100.00
17593;BME280;8915;51.760;14.300;2023-01-28T07:01:51;102011.13;;;-3.16;100.00
17593;BME280;8915;51.760;14.300;2023-01-28T07:04:18;101999.06;;;-3.18;100.00
17593;BME280;8915;51.760;14.300;2023-01-28T07:06:45;102008.66;;;-3.14;100.00
17593;BME280;8915;51.760;14.300;2023-01-28T07:09:11;102012.94;;;-3.13;100.00
17593;BME280;8915;51.760;14.300;2023-01-28T07:11:38;101998.63;;;-3.11;100.00
17593;BME280;8915;51.760;14.300;2023-01-28T07:14:04;102008.00;;;-3.10;100.00
17593;BME280;8915;51.760;14.300;2023-01-28T07:16:30;102014.88;;;-3.09;100.00
17593;BME280;8915;51.760;14.300;2023-01-28T07:18:57;102018.38;;;-3.07;100.00
17593;BME280;8915;51.760;14.300;2023-01-28T07:21:25;102019.44;;;-3.03;100.00
17593;BME280;8915;51.760;14.300;2023-01-28T07:23:51;102020.13;;;-3.06;100.00
17593;BME280;8915;51.760;14.300;2023-01-28T07:26:18;102022.84;;;-3.03;100.00
17593;BME280;8915;51.760;14.300;2023-01-28T07:28:45;102018.63;;;-3.02;100.00
17593;BME280;8915;51.760;14.300;2023-01-28T07:31:12;102017.75;;;-3.03;100.00
17593;BME280;8915;51.760;14.300;2023-01-28T07:33:38;102017.91;;;-3.00;100.00
17593;BME280;8915;51.760;14.300;2023-01-28T07:36:05;102010.25;;;-3.00;100.00
17593;BME280;8915;51.760;14.300;2023-01-28T07:38:33;102015.53;;;-2.97;100.00
17593;BME280;8915;51.760;14.300;2023-01-28T07:41:00;102020.75;;;-2.94;100.00
17593;BME280;8915;51.760;14.300;2023-01-28T07:43:26;102009.75;;;-2.93;100.00
17593;BME280;8915;51.760;14.300;2023-01-28T07:45:53;102005.59;;;-2.91;100.00
17593;BME280;8915;51.760;14.300;2023-01-28T07:48:22;102003.06;;;-2.91;100.00
17593;BME280;8915;51.760;14.300;2023-01-28T07:50:48;102009.09;;;-2.89;100.00
17593;BME280;8915;51.760;14.300;2023-01-28T07:53:16;102008.41;;;-2.86;100.00
17593;BME280;8915;51.760;14.300;2023-01-28T07:55:43;102017.00;;;-2.84;100.00
17593;BME280;8915;51.760;14.300;2023-01-28T07:58:11;102019.47;;;-2.86;100.00
17593;BME280;8915;51.760;14.300;2023-01-28T08:00:37;102021.38;;;-2.81;100.00
17593;BME280;8915;51.760;14.300;2023-01-28T08:03:06;102019.81;;;-2.79;100.00
17593;BME280;8915;51.760;14.300;2023-01-28T08:05:37;102028.41;;;-2.77;100.00
17593;BME280;8915;51.760;14.300;2023-01-28T08:08:05;102025.13;;;-2.75;100.00
17593;BME280;8915;51.760;14.300;2023-01-28T08:10:32;102022.81;;;-2.70;100.00
17593;BME280;8915;51.760;14.300;2023-01-28T08:12:59;102022.91;;;-2.69;100.00
17593;BME280;8915;51.760;14.300;2023-01-28T08:15:27;102028.94;;;-2.67;100.00
17593;BME280;8915;51.760;14.300;2023-01-28T08:17:54;102034.22;;;-2.63;100.00
17593;BME280;8915;51.760;14.300;2023-01-28T08:20:20;102027.44;;;-2.63;100.00
17593;BME280;8915;51.760;14.300;2023-01-28T08:22:46;102019.84;;;-2.61;100.00
17593;BME280;8915;51.760;14.300;2023-01-28T08:25:13;102019.19;;;-2.57;100.00
17593;BME280;8915;51.760;14.300;2023-01-28T08:27:39;102020.13;;;-2.55;100.00
17593;BME280;8915;51.760;14.300;2023-01-28T08:30:09;102022.69;;;-2.55;100.00
17593;BME280;8915;51.760;14.300;2023-01-28T08:32:36;102022.94;;;-2.51;100.00
17593;BME280;8915;51.760;14.300;2023-01-28T08:35:03;102029.00;;;-2.49;100.00
17593;BME280;8915;51.760;14.300;2023-01-28T08:37:31;102024.13;;;-2.44;100.00
17593;BME280;8915;51.760;14.300;2023-01-28T08:39:58;102031.03;;;-2.41;100.00
17593;BME280;8915;51.760;14.300;2023-01-28T08:42:24;102036.91;;;-2.44;100.00
17593;BME280;8915;51.760;14.300;2023-01-28T08:44:51;102033.59;;;-2.41;100.00
17593;BME280;8915;51.760;14.300;2023-01-28T08:47:19;102040.38;;;-2.42;100.00
17593;BME280;8915;51.760;14.300;2023-01-28T08:49:45;102040.56;;;-2.39;100.00
17593;BME280;8915;51.760;14.300;2023-01-28T08:52:12;102045.78;;;-2.36;100.00
17593;BME280;8915;51.760;14.300;2023-01-28T08:54:38;102041.41;;;-2.38;100.00
17593;BME280;8915;51.760;14.300;2023-01-28T08:57:04;102047.47;;;-2.36;100.00
17593;BME280;8915;51.760;14.300;2023-01-28T08:59:31;102044.41;;;-2.29;100.00
17593;BME280;8915;51.760;14.300;2023-01-28T09:01:57;102043.72;;;-2.26;100.00
17593;BME280;8915;51.760;14.300;2023-01-28T09:04:25;102048.00;;;-2.25;100.00
17593;BME280;8915;51.760;14.300;2023-01-28T09:06:52;102048.31;;;-2.19;100.00
17593;BME280;8915;51.760;14.300;2023-01-28T09:09:19;102040.06;;;-2.14;100.00
17593;BME280;8915;51.760;14.300;2023-01-28T09:11:45;102048.75;;;-2.10;100.00
17593;BME280;8915;51.760;14.300;2023-01-28T09:14:12;102052.06;;;-2.13;100.00
17593;BME280;8915;51.760;14.300;2023-01-28T09:16:38;102056.19;;;-2.15;100.00
17593;BME280;8915;51.760;14.300;2023-01-28T09:19:05;102056.34;;;-2.12;100.00
17593;BME280;8915;51.760;14.300;2023-01-28T09:21:32;102043.47;;;-2.13;100.00
17593;BME280;8915;51.760;14.300;2023-01-28T09:23:59;102057.22;;;-2.11;100.00
17593;BME280;8915;51.760;14.300;2023-01-28T09:26:26;102063.44;;;-2.06;100.00
17593;BME280;8915;51.760;14.300;2023-01-28T09:28:53;102063.56;;;-2.03;100.00
17593;BME280;8915;51.760;14.300;2023-01-28T09:31:20;102066.06;;;-2.04;100.00
17593;BME280;8915;51.760;14.300;2023-01-28T09:33:47;102062.91;;;-1.99;100.00
17593;BME280;8915;51.760;14.300;2023-01-28T09:36:20;102063.00;;;-1.97;100.00
17593;BME280;8915;51.760;14.300;2023-01-28T09:38:48;102064.69;;;-1.98;100.00
17593;BME280;8915;51.760;14.300;2023-01-28T09:41:24;102066.53;;;-1.95;100.00
17593;BME280;8915;51.760;14.300;2023-01-28T09:44:06;102068.25;;;-1.94;100.00
17593;BME280;8915;51.760;14.300;2023-01-28T09:46:39;102075.84;;;-1.96;100.00
17593;BME280;8915;51.760;14.300;2023-01-28T09:49:18;102079.34;;;-1.94;100.00
17593;BME280;8915;51.760;14.300;2023-01-28T09:51:49;102081.88;;;-1.95;100.00
17593;BME280;8915;51.760;14.300;2023-01-28T09:54:39;102083.91;;;-1.88;100.00
17593;BME280;8915;51.760;14.300;2023-01-28T09:57:12;102080.69;;;-1.84;100.00
17593;BME280;8915;51.760;14.300;2023-01-28T09:59:42;102087.41;;;-1.86;100.00
17593;BME280;8915;51.760;14.300;2023-01-28T10:02:24;102085.22;;;-1.78;100.00
17593;BME280;8915;51.760;14.300;2023-01-28T10:04:57;102083.50;;;-1.78;100.00
17593;BME280;8915;51.760;14.300;2023-01-28T10:07:33;102086.97;;;-1.77;100.00
17593;BME280;8915;51.760;14.300;2023-01-28T10:10:10;102092.00;;;-1.79;100.00
17593;BME280;8915;51.760;14.300;2023-01-28T10:12:47;102091.25;;;-1.76;100.00
17593;BME280;8915;51.760;14.300;2023-01-28T10:15:34;102097.34;;;-1.74;100.00
17593;BME280;8915;51.760;14.300;2023-01-28T10:18:07;102099.16;;;-1.72;100.00
17593;BME280;8915;51.760;14.300;2023-01-28T10:20:41;102086.63;;;-1.67;100.00
17593;BME280;8915;51.760;14.300;2023-01-28T10:23:14;102090.75;;;-1.69;100.00
17593;BME280;8915;51.760;14.300;2023-01-28T10:25:45;102090.91;;;-1.66;100.00
17593;BME280;8915;51.760;14.300;2023-01-28T10:28:18;102093.63;;;-1.63;100.00
17593;BME280;8915;51.760;14.300;2023-01-28T10:30:48;102093.53;;;-1.64;100.00
17593;BME280;8915;51.760;14.300;2023-01-28T10:33:19;102100.97;;;-1.69;100.00
17593;BME280;8915;51.760;14.300;2023-01-28T10:35:46;102106.31;;;-1.64;100.00
17593;BME280;8915;51.760;14.300;2023-01-28T10:38:14;102104.50;;;-1.67;100.00
17593;BME280;8915;51.760;14.300;2023-01-28T10:40:43;102097.03;;;-1.62;100.00
17593;BME280;8915;51.760;14.300;2023-01-28T10:43:13;102094.56;;;-1.61;100.00
17593;BME280;8915;51.760;14.300;2023-01-28T10:45:45;102097.13;;;-1.61;100.00
17593;BME280;8915;51.760;14.300;2023-01-28T10:48:20;102089.59;;;-1.58;100.00
17593;BME280;8915;51.760;14.300;2023-01-28T10:50:50;102087.91;;;-1.57;100.00
17593;BME280;8915;51.760;14.300;2023-01-28T10:53:17;102091.34;;;-1.57;100.00
17593;BME280;8915;51.760;14.300;2023-01-28T10:55:49;102095.66;;;-1.56;100.00
17593;BME280;8915;51.760;14.300;2023-01-28T10:58:19;102096.75;;;-1.50;100.00
17593;BME280;8915;51.760;14.300;2023-01-28T11:00:51;102089.94;;;-1.50;100.00
17593;BME280;8915;51.760;14.300;2023-01-28T11:03:18;102089.28;;;-1.46;100.00
17593;BME280;8915;51.760;14.300;2023-01-28T11:05:49;102083.50;;;-1.42;100.00
17593;BME280;8915;51.760;14.300;2023-01-28T11:08:17;102080.00;;;-1.44;100.00
17593;BME280;8915;51.760;14.300;2023-01-28T11:10:45;102075.06;;;-1.39;100.00
17593;BME280;8915;51.760;14.300;2023-01-28T11:13:16;102084.22;;;-1.44;100.00
17593;BME280;8915;51.760;14.300;2023-01-28T11:15:47;102081.66;;;-1.44;100.00
17593;BME280;8915;51.760;14.300;2023-01-28T11:18:17;102085.91;;;-1.45;100.00
17593;BME280;8915;51.760;14.300;2023-01-28T11:20:51;102085.25;;;-1.41;100.00
17593;BME280;8915;51.760;14.300;2023-01-28T11:23:21;102087.16;;;-1.37;100.00
17593;BME280;8915;51.760;14.300;2023-01-28T11:25:58;102083.19;;;-1.30;100.00
17593;BME280;8915;51.760;14.300;2023-01-28T11:28:29;102076.31;;;-1.31;100.00
17593;BME280;8915;51.760;14.300;2023-01-28T11:30:57;102071.28;;;-1.29;100.00
17593;BME280;8915;51.760;14.300;2023-01-28T11:33:31;102078.81;;;-1.33;100.00
17593;BME280;8915;51.760;14.300;2023-01-28T11:36:04;102072.13;;;-1.29;100.00
17593;BME280;8915;51.760;14.300;2023-01-28T11:38:32;102070.59;;;-1.25;100.00
17593;BME280;8915;51.760;14.300;2023-01-28T11:40:59;102072.44;;;-1.23;100.00
17593;BME280;8915;51.760;14.300;2023-01-28T11:43:29;102073.38;;;-1.21;100.00
17593;BME280;8915;51.760;14.300;2023-01-28T11:46:02;102065.91;;;-1.16;100.00
17593;BME280;8915;51.760;14.300;2023-01-28T11:48:40;102066.78;;;-1.16;100.00
17593;BME280;8915;51.760;14.300;2023-01-28T11:51:22;102067.03;;;-1.09;100.00
17593;BME280;8915;51.760;14.300;2023-01-28T11:54:02;102062.94;;;-1.06;100.00
17593;BME280;8915;51.760;14.300;2023-01-28T11:56:42;102059.78;;;-1.00;100.00
17593;BME280;8915;51.760;14.300;2023-01-28T11:59:41;102059.09;;;-0.96;100.00
17593;BME280;8915;51.760;14.300;2023-01-28T12:02:21;102056.75;;;-0.91;100.00
17593;BME280;8915;51.760;14.300;2023-01-28T12:05:08;102043.41;;;-0.84;100.00
17593;BME280;8915;51.760;14.300;2023-01-28T12:07:45;102044.28;;;-0.84;100.00
17593;BME280;8915;51.760;14.300;2023-01-28T12:10:19;102038.47;;;-0.80;100.00
17593;BME280;8915;51.760;14.300;2023-01-28T12:13:07;102032.63;;;-0.77;100.00
17593;BME280;8915;51.760;14.300;2023-01-28T12:19:00;102044.72;;;-0.73;100.00
17593;BME280;8915;51.760;14.300;2023-01-28T12:21:38;102031.22;;;-0.69;100.00
17593;BME280;8915;51.760;14.300;2023-01-28T12:24:21;102036.28;;;-0.70;100.00
17593;BME280;8915;51.760;14.300;2023-01-28T12:26:57;102035.41;;;-0.71;100.00
17593;BME280;8915;51.760;14.300;2023-01-28T12:29:33;102037.31;;;-0.67;100.00
17593;BME280;8915;51.760;14.300;2023-01-28T12:32:19;102037.97;;;-0.71;100.00
17593;BME280;8915;51.760;14.300;2023-01-28T12:35:20;102035.19;;;-0.77;100.00
17593;BME280;8915;51.760;14.300;2023-01-28T12:37:58;102032.53;;;-0.79;100.00
17593;BME280;8915;51.760;14.300;2023-01-28T12:40:44;102029.69;;;-0.85;100.00
17593;BME280;8915;51.760;14.300;2023-01-28T12:43:17;102022.09;;;-0.83;100.00
17593;BME280;8915;51.760;14.300;2023-01-28T12:45:50;102032.41;;;-0.82;100.00
17593;BME280;8915;51.760;14.300;2023-01-28T12:48:20;102021.22;;;-0.84;100.00
17593;BME280;8915;51.760;14.300;2023-01-28T12:50:52;102030.41;;;-0.89;100.00
17593;BME280;8915;51.760;14.300;2023-01-28T12:53:26;102028.69;;;-0.88;100.00
17593;BME280;8915;51.760;14.300;2023-01-28T12:55:57;102036.53;;;-0.85;100.00
17593;BME280;8915;51.760;14.300;2023-01-28T12:58:36;102027.84;;;-0.89;100.00
17593;BME280;8915;51.760;14.300;2023-01-28T13:01:07;102021.16;;;-0.85;100.00
17593;BME280;8915;51.760;14.300;2023-01-28T13:03:40;102029.69;;;-0.85;100.00
17593;BME280;8915;51.760;14.300;2023-01-28T13:06:14;102031.41;;;-0.85;100.00